Time,TemperatureF,DewpointF,PressureIn,WindDirection,WindDirectionDegrees,WindSpeedMPH,WindSpeedGustMPH,Humidity,HourlyPrecipIn,Conditions,Clouds,dailyrainin,SoftwareType,DateUTC
2013-07-15 00:00:00,79.5,56.3,29.36,WSW,257,3.0,6.0,45,0.00,CLR,CLR,0.00,WeatherDisplay:10.37,2013-07-15 07:00:00,
2013-07-15 00:05:00,79.7,56.5,29.35,West,270,3.0,6.0,45,0.00,CLR,CLR,0.00,WeatherDisplay:10.37,2013-07-15 07:05:00,
2013-07-15 00:10:00,80.2,57.0,29.36,West,270,1.0,5.0,45,0.00,CLR,CLR,0.00,WeatherDisplay:10.37,2013-07-15 07:10:00,
2013-07-15 00:15:00,80.4,56.5,29.35,WNW,300,3.0,9.0,44,0.00,CLR,CLR,0.00,WeatherDisplay:10.37,2013-07-15 07:15:00,
2013-07-15 00:20:00,81.1,55.9,29.35,WNW,300,1.0,3.0,42,0.00,CLR,CLR,0.00,WeatherDisplay:10.37,2013-07-15 07:20:00,
2013-07-15 00:25:00,80.4,55.9,29.35,West,270,3.0,7.0,43,0.00,CLR,CLR,0.00,WeatherDisplay:10.37,2013-07-15 07:25:00,
2013-07-15 00:30:00,79.9,55.4,29.35,WSW,250,3.0,5.0,43,0.00,CLR,CLR,0.00,WeatherDisplay:10.37,2013-07-15 07:30:00,
2013-07-15 00:35:00,79.7,54.6,29.35,WSW,247,3.0,4.0,42,0.00,CLR,CLR,0.00,WeatherDisplay:10.37,2013-07-15 07:35:00,
2013-07-15 00:40:00,80.1,56.2,29.35,West,270,3.0,5.0,44,0.00,CLR,CLR,0.00,WeatherDisplay:10.37,2013-07-15 07:40:00,
2013-07-15 00:45:00,80.2,55.7,29.34,West,270,3.0,5.0,43,0.00,CLR,CLR,0.00,WeatherDisplay:10.37,2013-07-15 07:45:00,
2013-07-15 00:50:00,80.4,54.6,29.34,West,270,2.0,4.0,41,0.00,CLR,CLR,0.00,WeatherDisplay:10.37,2013-07-15 07:50:00,
2013-07-15 00:55:00,80.6,53.4,29.34,West,270,3.0,7.0,39,0.00,CLR,CLR,0.00,WeatherDisplay:10.37,2013-07-15 07:55:00,
2013-07-15 01:00:00,80.8,55.5,29.33,West,264,1.0,3.0,42,0.00,CLR,CLR,0.00,WeatherDisplay:10.37,2013-07-15 08:00:00,
2013-07-15 01:05:00,81.0,55.0,29.33,West,263,3.0,6.0,41,0.00,CLR,CLR,0.00,WeatherDisplay:10.37,2013-07-15 08:05:00,
2013-07-15 01:10:00,80.6,54.0,29.34,West,270,3.0,6.0,40,0.00,CLR,CLR,0.00,WeatherDisplay:10.37,2013-07-15 08:10:00,
2013-07-15 01:15:00,80.2,53.7,29.33,West,259,3.0,5.0,40,0.00,CLR,CLR,0.00,WeatherDisplay:10.37,2013-07-15 08:15:00,
2013-07-15 01:20:00,80.4,54.6,29.33,WSW,257,2.0,5.0,41,0.00,CLR,CLR,0.00,WeatherDisplay:10.37,2013-07-15 08:20:00,
2013-07-15 01:25:00,81.9,54.5,29.33,West,270,1.0,4.0,39,0.00,CLR,CLR,0.00,WeatherDisplay:10.37,2013-07-15 08:25:00,
2013-07-15 01:30:00,82.6,54.4,29.32,West,270,1.0,4.0,38,0.00,CLR,CLR,0.00,WeatherDisplay:10.37,2013-07-15 08:30:00,
2013-07-15 01:35:00,83.1,54.1,29.33,SW,236,5.0,8.0,37,0.00,CLR,CLR,0.00,WeatherDisplay:10.37,2013-07-15 08:35:00,
2013-07-15 01:40:00,82.9,53.2,29.33,WSW,240,2.0,4.0,36,0.00,CLR,CLR,0.00,WeatherDisplay:10.37,2013-07-15 08:40:00,
2013-07-15 01:45:00,81.1,53.8,29.32,West,270,3.0,5.0,39,0.00,CLR,CLR,0.00,WeatherDisplay:10.37,2013-07-15 08:45:00,
2013-07-15 01:50:00,81.5,54.2,29.32,West,270,2.0,4.0,39,0.00,CLR,CLR,0.00,WeatherDisplay:10.37,2013-07-15 08:50:00,
2013-07-15 01:55:00,81.7,53.6,29.32,West,270,6.0,8.0,38,0.00,CLR,CLR,0.00,WeatherDisplay:10.37,2013-07-15 08:55:00,
2013-07-15 02:00:00,81.1,53.1,29.31,West,270,3.0,7.0,38,0.00,CLR,CLR,0.00,WeatherDisplay:10.37,2013-07-15 09:00:00,
2013-07-15 02:05:00,81.1,53.1,29.31,West,270,3.0,7.0,38,0.00,CLR,CLR,0.00,WeatherDisplay:10.37,2013-07-15 09:05:00,
2013-07-15 02:10:00,81.1,53.1,29.31,West,270,3.0,7.0,38,0.00,CLR,CLR,0.00,WeatherDisplay:10.37,2013-07-15 09:10:00,
2013-07-15 02:15:00,80.4,52.5,29.31,WSW,247,3.0,8.0,38,0.00,CLR,CLR,0.00,WeatherDisplay:10.37,2013-07-15 09:15:00,
2013-07-15 02:20:00,80.1,53.6,29.31,WSW,247,3.0,9.0,40,0.00,CLR,CLR,0.00,WeatherDisplay:10.37,2013-07-15 09:20:00,
2013-07-15 02:25:00,80.2,53.0,29.31,West,270,6.0,8.0,39,0.00,CLR,CLR,0.00,WeatherDisplay:10.37,2013-07-15 09:25:00,
2013-07-15 02:30:00,79.5,51.7,29.31,WNW,286,3.0,6.0,38,0.00,CLR,CLR,0.00,WeatherDisplay:10.37,2013-07-15 09:30:00,
2013-07-15 02:35:00,79.3,51.5,29.30,West,264,3.0,6.0,38,0.00,CLR,CLR,0.00,WeatherDisplay:10.37,2013-07-15 09:35:00,
2013-07-15 02:40:00,79.7,51.8,29.30,WSW,245,3.0,6.0,38,0.00,CLR,CLR,0.00,WeatherDisplay:10.37,2013-07-15 09:40:00,
2013-07-15 02:45:00,79.5,51.0,29.30,West,270,2.0,4.0,37,0.00,CLR,CLR,0.00,WeatherDisplay:10.37,2013-07-15 09:45:00,
2013-07-15 02:50:00,79.0,51.2,29.30,West,270,3.0,6.0,38,0.00,CLR,CLR,0.00,WeatherDisplay:10.37,2013-07-15 09:50:00,
2013-07-15 02:55:00,78.8,51.0,29.30,West,270,8.0,12.0,38,0.00,CLR,CLR,0.00,WeatherDisplay:10.37,2013-07-15 09:55:00,
2013-07-15 03:00:00,78.8,51.7,29.29,WSW,257,3.0,7.0,39,0.00,CLR,CLR,0.00,WeatherDisplay:10.37,2013-07-15 10:00:00,
2013-07-15 03:05:00,78.6,51.6,29.29,WSW,250,3.0,8.0,39,0.00,CLR,CLR,0.00,WeatherDisplay:10.37,2013-07-15 10:05:00,
2013-07-15 03:10:00,78.6,51.6,29.29,West,270,3.0,8.0,39,0.00,CLR,CLR,0.00,WeatherDisplay:10.37,2013-07-15 10:10:00,
2013-07-15 03:15:00,79.2,52.1,29.29,West,270,3.0,8.0,39,0.00,CLR,CLR,0.00,WeatherDisplay:10.37,2013-07-15 10:15:00,
2013-07-15 03:20:00,79.0,51.9,29.29,WSW,254,2.0,8.0,39,0.00,CLR,CLR,0.00,WeatherDisplay:10.37,2013-07-15 10:20:00,
2013-07-15 03:25:00,79.2,52.1,29.29,West,270,2.0,4.0,39,0.00,CLR,CLR,0.00,WeatherDisplay:10.37,2013-07-15 10:25:00,
2013-07-15 03:30:00,79.5,51.7,29.29,WNW,286,3.0,7.0,38,0.00,CLR,CLR,0.00,WeatherDisplay:10.37,2013-07-15 10:30:00,
2013-07-15 03:35:00,79.2,50.6,29.29,West,270,3.0,7.0,37,0.00,CLR,CLR,0.00,WeatherDisplay:10.37,2013-07-15 10:35:00,
2013-07-15 03:40:00,79.3,52.2,29.28,West,270,3.0,6.0,39,0.00,CLR,CLR,0.00,WeatherDisplay:10.37,2013-07-15 10:40:00,
2013-07-15 03:45:00,79.7,51.8,29.28,West,270,3.0,7.0,38,0.00,CLR,CLR,0.00,WeatherDisplay:10.37,2013-07-15 10:45:00,
2013-07-15 03:50:00,80.2,51.6,29.28,West,270,3.0,6.0,37,0.00,CLR,CLR,0.00,WeatherDisplay:10.37,2013-07-15 10:50:00,
2013-07-15 03:55:00,80.6,51.2,29.28,West,270,3.0,5.0,36,0.00,CLR,CLR,0.00,WeatherDisplay:10.37,2013-07-15 10:55:00,
2013-07-15 04:00:00,81.3,51.0,29.28,West,270,5.0,8.0,35,0.00,CLR,CLR,0.00,WeatherDisplay:10.37,2013-07-15 11:00:00,
2013-07-15 04:05:00,81.7,51.4,29.28,West,270,2.0,4.0,35,0.00,CLR,CLR,0.00,WeatherDisplay:10.37,2013-07-15 11:05:00,
2013-07-15 04:10:00,81.9,50.7,29.28,West,270,2.0,6.0,34,0.00,CLR,CLR,0.00,WeatherDisplay:10.37,2013-07-15 11:10:00,
2013-07-15 04:15:00,81.9,50.7,29.28,West,270,3.0,11.0,34,0.00,CLR,CLR,0.00,WeatherDisplay:10.37,2013-07-15 11:15:00,
2013-07-15 04:20:00,81.9,51.5,29.27,WSW,254,2.0,4.0,35,0.00,CLR,CLR,0.00,WeatherDisplay:10.37,2013-07-15 11:20:00,
2013-07-15 04:25:00,82.4,51.2,29.27,WSW,251,3.0,8.0,34,0.00,CLR,CLR,0.00,WeatherDisplay:10.37,2013-07-15 11:25:00,
2013-07-15 04:30:00,81.7,50.6,29.27,WSW,243,5.0,8.0,34,0.00,CLR,CLR,0.00,WeatherDisplay:10.37,2013-07-15 11:30:00,
2013-07-15 04:35:00,81.0,49.1,29.26,WSW,247,5.0,8.0,33,0.00,CLR,CLR,0.00,WeatherDisplay:10.37,2013-07-15 11:35:00,
2013-07-15 04:40:00,81.3,49.5,29.26,West,270,2.0,3.0,33,0.00,CLR,CLR,0.00,WeatherDisplay:10.37,2013-07-15 11:40:00,
2013-07-15 04:45:00,81.3,49.5,29.27,WSW,240,5.0,8.0,33,0.00,CLR,CLR,0.00,WeatherDisplay:10.37,2013-07-15 11:45:00,
2013-07-15 04:50:00,81.5,49.6,29.27,WSW,244,1.0,5.0,33,0.00,CLR,CLR,0.00,WeatherDisplay:10.37,2013-07-15 11:50:00,
2013-07-15 04:55:00,81.1,48.5,29.27,WNW,288,2.0,5.0,32,0.00,CLR,CLR,0.00,WeatherDisplay:10.37,2013-07-15 11:55:00,
2013-07-15 05:00:00,81.1,48.5,29.26,West,270,5.0,8.0,32,0.00,CLR,CLR,0.00,WeatherDisplay:10.37,2013-07-15 12:00:00,
2013-07-15 05:05:00,80.8,48.2,29.26,West,270,3.0,5.0,32,0.00,CLR,CLR,0.00,WeatherDisplay:10.37,2013-07-15 12:05:00,
2013-07-15 05:10:00,80.2,48.5,29.26,West,270,2.0,4.0,33,0.00,CLR,CLR,0.00,WeatherDisplay:10.37,2013-07-15 12:10:00,
2013-07-15 05:15:00,80.2,48.5,29.26,WSW,238,6.0,8.0,33,0.00,CLR,CLR,0.00,WeatherDisplay:10.37,2013-07-15 12:15:00,
2013-07-15 05:20:00,80.2,49.3,29.26,WSW,241,3.0,4.0,34,0.00,CLR,CLR,0.00,WeatherDisplay:10.37,2013-07-15 12:20:00,
2013-07-15 05:25:00,79.9,49.0,29.26,West,270,3.0,5.0,34,0.00,CLR,CLR,0.00,WeatherDisplay:10.37,2013-07-15 12:25:00,
2013-07-15 05:30:00,79.3,48.5,29.26,West,270,3.0,8.0,34,0.00,CLR,CLR,0.00,WeatherDisplay:10.37,2013-07-15 12:30:00,
2013-07-15 05:35:00,79.0,48.2,29.26,WSW,254,2.0,7.0,34,0.00,CLR,CLR,0.00,WeatherDisplay:10.37,2013-07-15 12:35:00,
2013-07-15 05:40:00,78.4,48.5,29.26,SW,235,1.0,4.0,35,0.00,CLR,CLR,0.00,WeatherDisplay:10.37,2013-07-15 12:40:00,
2013-07-15 05:45:00,78.3,48.4,29.25,West,270,3.0,5.0,35,0.00,CLR,CLR,0.00,WeatherDisplay:10.37,2013-07-15 12:45:00,
2013-07-15 05:50:00,77.9,49.5,29.25,West,270,1.0,3.0,37,0.00,CLR,CLR,0.00,WeatherDisplay:10.37,2013-07-15 12:50:00,
2013-07-15 05:55:00,77.9,50.2,29.25,West,270,1.0,4.0,38,0.00,CLR,CLR,0.00,WeatherDisplay:10.37,2013-07-15 12:55:00,
2013-07-15 06:00:00,77.0,48.7,29.26,West,270,5.0,8.0,37,0.00,CLR,CLR,0.00,WeatherDisplay:10.37,2013-07-15 13:00:00,
2013-07-15 06:05:00,76.6,49.8,29.25,West,270,1.0,2.0,39,0.00,CLR,CLR,0.00,WeatherDisplay:10.37,2013-07-15 13:05:00,
2013-07-15 06:10:00,76.1,50.0,29.25,West,270,3.0,5.0,40,0.00,CLR,CLR,0.00,WeatherDisplay:10.37,2013-07-15 13:10:00,
2013-07-15 06:15:00,75.6,49.5,29.26,West,270,2.0,5.0,40,0.00,CLR,CLR,0.00,WeatherDisplay:10.37,2013-07-15 13:15:00,
2013-07-15 06:20:00,75.4,50.0,29.25,West,270,1.0,2.0,41,0.00,CLR,CLR,0.00,WeatherDisplay:10.37,2013-07-15 13:20:00,
2013-07-15 06:25:00,75.0,49.7,29.25,SW,232,3.0,4.0,41,0.00,CLR,CLR,0.00,WeatherDisplay:10.37,2013-07-15 13:25:00,
2013-07-15 06:30:00,74.8,49.6,29.25,WSW,244,2.0,5.0,41,0.00,CLR,CLR,0.00,WeatherDisplay:10.37,2013-07-15 13:30:00,
2013-07-15 06:35:00,74.5,49.9,29.25,West,270,1.0,3.0,42,0.00,CLR,CLR,0.00,WeatherDisplay:10.37,2013-07-15 13:35:00,
2013-07-15 06:40:00,73.9,49.4,29.25,West,270,2.0,5.0,42,0.00,CLR,CLR,0.00,WeatherDisplay:10.37,2013-07-15 13:40:00,
2013-07-15 06:45:00,73.4,49.5,29.25,WSW,252,1.0,4.0,43,0.00,CLR,CLR,0.00,WeatherDisplay:10.37,2013-07-15 13:45:00,
2013-07-15 06:47:00,72.7,58.0,29.39,East,90,3.5,0.0,60,0.00,CLR,,0.00,WeatherDisplay:10.37,2013-07-15 13:47:00,
2013-07-15 06:50:00,73.0,49.2,29.26,WSW,244,0.0,2.0,43,0.00,CLR,CLR,0.00,WeatherDisplay:10.37,2013-07-15 13:50:00,
2013-07-15 06:55:00,72.7,49.5,29.26,WSW,244,1.0,4.0,44,0.00,CLR,CLR,0.00,WeatherDisplay:10.37,2013-07-15 13:55:00,
2013-07-15 07:00:00,72.3,49.2,29.26,WSW,247,1.0,4.0,44,0.00,CLR,CLR,0.00,WeatherDisplay:10.37,2013-07-15 14:00:00,
2013-07-15 07:05:00,72.0,49.5,29.25,West,270,0.0,2.0,45,0.00,CLR,CLR,0.00,WeatherDisplay:10.37,2013-07-15 14:05:00,
2013-07-15 07:10:00,71.4,49.6,29.26,West,270,2.0,3.0,46,0.00,CLR,CLR,0.00,WeatherDisplay:10.37,2013-07-15 14:10:00,
2013-07-15 07:15:00,71.2,50.0,29.26,West,270,1.0,2.0,47,0.00,CLR,CLR,0.00,WeatherDisplay:10.37,2013-07-15 14:15:00,
2013-07-15 07:20:00,70.9,49.6,29.26,West,270,1.0,2.0,47,0.00,CLR,CLR,0.00,WeatherDisplay:10.37,2013-07-15 14:20:00,
2013-07-15 07:25:00,70.5,49.9,29.26,SW,235,2.0,5.0,48,0.00,CLR,CLR,0.00,WeatherDisplay:10.37,2013-07-15 14:25:00,
2013-07-15 07:30:00,70.2,50.1,29.25,WSW,247,2.0,4.0,49,0.00,CLR,CLR,0.00,WeatherDisplay:10.37,2013-07-15 14:30:00,
2013-07-15 07:35:00,69.8,50.3,29.25,West,260,1.0,2.0,50,0.00,CLR,CLR,0.00,WeatherDisplay:10.37,2013-07-15 14:35:00,
2013-07-15 07:40:00,69.4,50.0,29.26,WSW,257,1.0,3.0,50,0.00,CLR,CLR,0.00,WeatherDisplay:10.37,2013-07-15 14:40:00,
2013-07-15 07:45:00,69.1,50.2,29.26,West,270,0.0,2.0,51,0.00,CLR,CLR,0.00,WeatherDisplay:10.37,2013-07-15 14:45:00,
2013-07-15 07:50:00,68.9,50.5,29.26,West,270,1.0,2.0,52,0.00,CLR,CLR,0.00,WeatherDisplay:10.37,2013-07-15 14:50:00,
2013-07-15 07:55:00,68.5,50.2,29.26,NNW,330,0.0,3.0,52,0.00,CLR,CLR,0.00,WeatherDisplay:10.37,2013-07-15 14:55:00,
2013-07-15 08:00:00,68.4,50.6,29.27,NW,315,0.0,3.0,53,0.00,CLR,CLR,0.00,WeatherDisplay:10.37,2013-07-15 15:00:00,
2013-07-15 08:05:00,68.2,50.4,29.26,West,270,2.0,5.0,53,0.00,CLR,CLR,0.00,WeatherDisplay:10.37,2013-07-15 15:05:00,
2013-07-15 08:10:00,68.0,50.2,29.27,West,270,2.0,4.0,53,0.00,CLR,CLR,0.00,WeatherDisplay:10.37,2013-07-15 15:10:00,
2013-07-15 08:15:00,67.8,50.6,29.27,West,270,1.0,3.0,54,0.00,CLR,CLR,0.00,WeatherDisplay:10.37,2013-07-15 15:15:00,
2013-07-15 08:20:00,67.6,50.4,29.27,WSW,240,3.0,5.0,54,0.00,CLR,CLR,0.00,WeatherDisplay:10.37,2013-07-15 15:20:00,
2013-07-15 08:25:00,67.5,50.2,29.26,WSW,240,1.0,3.0,54,0.00,CLR,CLR,0.00,WeatherDisplay:10.37,2013-07-15 15:25:00,
2013-07-15 08:30:00,67.5,50.7,29.27,West,270,1.0,3.0,55,0.00,CLR,CLR,0.00,WeatherDisplay:10.37,2013-07-15 15:30:00,
2013-07-15 08:35:00,67.3,50.6,29.27,West,270,1.0,2.0,55,0.00,CLR,CLR,0.00,WeatherDisplay:10.37,2013-07-15 15:35:00,
2013-07-15 08:40:00,67.3,50.6,29.27,West,270,0.0,2.0,55,0.00,CLR,CLR,0.00,WeatherDisplay:10.37,2013-07-15 15:40:00,
2013-07-15 08:45:00,67.1,50.4,29.27,West,270,0.0,1.0,55,0.00,CLR,CLR,0.00,WeatherDisplay:10.37,2013-07-15 15:45:00,
2013-07-15 08:50:00,66.7,50.1,29.27,WSW,247,0.0,1.0,55,0.00,CLR,CLR,0.00,WeatherDisplay:10.37,2013-07-15 15:50:00,
2013-07-15 08:55:00,66.4,50.2,29.27,West,270,0.0,1.0,56,0.00,CLR,CLR,0.00,WeatherDisplay:10.37,2013-07-15 15:55:00,
2013-07-15 09:00:00,66.0,49.9,29.27,NW,315,0.0,1.0,56,0.00,CLR,CLR,0.00,WeatherDisplay:10.37,2013-07-15 16:00:00,
2013-07-15 09:05:00,65.7,49.5,29.27,NW,315,0.0,1.0,56,0.00,CLR,CLR,0.00,WeatherDisplay:10.37,2013-07-15 16:05:00,
2013-07-15 09:10:00,65.1,49.5,29.27,NW,315,0.0,1.0,57,0.00,CLR,CLR,0.00,WeatherDisplay:10.37,2013-07-15 16:10:00,
2013-07-15 09:15:00,64.9,49.3,29.27,NW,315,0.0,0.0,57,0.00,CLR,CLR,0.00,WeatherDisplay:10.37,2013-07-15 16:15:00,
2013-07-15 09:20:00,64.2,49.1,29.27,NW,315,0.0,0.0,58,0.00,CLR,CLR,0.00,WeatherDisplay:10.37,2013-07-15 16:20:00,
2013-07-15 09:25:00,63.9,49.2,29.27,NW,315,0.0,0.0,59,0.00,CLR,CLR,0.00,WeatherDisplay:10.37,2013-07-15 16:25:00,
2013-07-15 09:30:00,63.5,49.4,29.27,NW,315,0.0,0.0,60,0.00,CLR,CLR,0.00,WeatherDisplay:10.37,2013-07-15 16:30:00,
2013-07-15 09:35:00,63.0,49.3,29.27,NW,315,0.0,0.0,61,0.00,CLR,CLR,0.00,WeatherDisplay:10.37,2013-07-15 16:35:00,
2013-07-15 09:40:00,62.6,49.8,29.27,NW,315,0.0,0.0,63,0.00,CLR,CLR,0.00,WeatherDisplay:10.37,2013-07-15 16:40:00,
2013-07-15 09:45:00,62.2,49.9,29.27,NW,315,0.0,0.0,64,0.00,CLR,CLR,0.00,WeatherDisplay:10.37,2013-07-15 16:45:00,
2013-07-15 09:50:00,61.9,50.0,29.27,NW,315,0.0,0.0,65,0.00,CLR,CLR,0.00,WeatherDisplay:10.37,2013-07-15 16:50:00,
2013-07-15 09:55:00,61.5,49.6,29.27,NW,315,0.0,0.0,65,0.00,CLR,CLR,0.00,WeatherDisplay:10.37,2013-07-15 16:55:00,
2013-07-15 10:00:00,61.2,49.7,29.27,NW,315,0.0,0.0,66,0.00,CLR,CLR,0.00,WeatherDisplay:10.37,2013-07-15 17:00:00,
2013-07-15 10:05:00,61.0,49.9,29.27,NNW,338,0.0,0.0,67,0.00,CLR,CLR,0.00,WeatherDisplay:10.37,2013-07-15 17:05:00,
2013-07-15 10:10:00,60.8,50.2,29.27,North,0,0.0,0.0,68,0.00,CLR,CLR,0.00,WeatherDisplay:10.37,2013-07-15 17:10:00,
2013-07-15 10:15:00,60.6,50.0,29.27,NE,45,0.0,0.0,68,0.00,CLR,CLR,0.00,WeatherDisplay:10.37,2013-07-15 17:15:00,
2013-07-15 10:20:00,60.4,50.2,29.28,East,90,0.0,0.0,69,0.00,CLR,CLR,0.00,WeatherDisplay:10.37,2013-07-15 17:20:00,
2013-07-15 10:25:00,60.3,50.0,29.27,East,90,0.0,0.0,69,0.00,CLR,CLR,0.00,WeatherDisplay:10.37,2013-07-15 17:25:00,
2013-07-15 10:30:00,59.9,50.1,29.27,East,90,0.0,1.0,70,0.00,CLR,CLR,0.00,WeatherDisplay:10.37,2013-07-15 17:30:00,
2013-07-15 10:35:00,59.7,49.9,29.27,East,90,0.0,0.0,70,0.00,CLR,CLR,0.00,WeatherDisplay:10.37,2013-07-15 17:35:00,
2013-07-15 10:40:00,59.5,50.1,29.27,ENE,68,0.0,0.0,71,0.00,CLR,CLR,0.00,WeatherDisplay:10.37,2013-07-15 17:40:00,
2013-07-15 10:45:00,59.4,50.3,29.27,ENE,68,0.0,0.0,72,0.00,CLR,CLR,0.00,WeatherDisplay:10.37,2013-07-15 17:45:00,
2013-07-15 10:50:00,59.2,50.2,29.27,East,90,0.0,0.0,72,0.00,CLR,CLR,0.00,WeatherDisplay:10.37,2013-07-15 17:50:00,
2013-07-15 10:55:00,59.0,50.0,29.27,ENE,68,0.0,1.0,72,0.00,CLR,CLR,0.00,WeatherDisplay:10.37,2013-07-15 17:55:00,
2013-07-15 11:00:00,58.8,50.2,29.28,ENE,68,0.0,0.0,73,0.00,CLR,CLR,0.00,WeatherDisplay:10.37,2013-07-15 18:00:00,
2013-07-15 11:05:00,58.5,50.2,29.27,East,90,0.0,0.0,74,0.00,CLR,CLR,0.00,WeatherDisplay:10.37,2013-07-15 18:05:00,
2013-07-15 11:10:00,58.5,50.2,29.27,ENE,68,0.0,1.0,74,0.00,CLR,CLR,0.00,WeatherDisplay:10.37,2013-07-15 18:10:00,
2013-07-15 11:15:00,58.3,50.0,29.27,NE,45,0.0,0.0,74,0.00,CLR,CLR,0.00,WeatherDisplay:10.37,2013-07-15 18:15:00,
2013-07-15 11:20:00,58.1,50.2,29.27,NE,45,0.0,0.0,75,0.00,CLR,CLR,0.00,WeatherDisplay:10.37,2013-07-15 18:20:00,
2013-07-15 11:25:00,57.9,50.0,29.27,NE,45,0.0,0.0,75,0.00,CLR,CLR,0.00,WeatherDisplay:10.37,2013-07-15 18:25:00,
2013-07-15 11:30:00,57.6,50.0,29.27,NE,45,0.0,0.0,76,0.00,CLR,CLR,0.00,WeatherDisplay:10.37,2013-07-15 18:30:00,
2013-07-15 11:35:00,57.4,49.9,29.27,NE,45,0.0,1.0,76,0.00,CLR,CLR,0.00,WeatherDisplay:10.37,2013-07-15 18:35:00,
2013-07-15 11:40:00,57.4,50.2,29.27,NE,45,0.0,0.0,77,0.00,CLR,CLR,0.00,WeatherDisplay:10.37,2013-07-15 18:40:00,
2013-07-15 11:45:00,57.4,50.2,29.27,SE,135,0.0,1.0,77,0.00,CLR,CLR,0.00,WeatherDisplay:10.37,2013-07-15 18:45:00,
2013-07-15 11:50:00,57.2,50.4,29.27,SW,225,0.0,0.0,78,0.00,CLR,CLR,0.00,WeatherDisplay:10.37,2013-07-15 18:50:00,
2013-07-15 11:55:00,57.0,50.2,29.27,SW,225,0.0,0.0,78,0.00,CLR,CLR,0.00,WeatherDisplay:10.37,2013-07-15 18:55:00,
2013-07-15 12:00:00,56.8,50.1,29.27,SW,225,0.0,0.0,78,0.00,CLR,CLR,0.00,WeatherDisplay:10.37,2013-07-15 19:00:00,
2013-07-15 12:05:00,56.7,49.9,29.27,SW,225,0.0,0.0,78,0.00,CLR,CLR,0.00,WeatherDisplay:10.37,2013-07-15 19:05:00,
2013-07-15 12:10:00,56.5,50.0,29.27,SW,225,0.0,0.0,79,0.00,CLR,CLR,0.00,WeatherDisplay:10.37,2013-07-15 19:10:00,
2013-07-15 12:15:00,56.3,49.9,29.27,SE,135,0.0,0.0,79,0.00,CLR,CLR,0.00,WeatherDisplay:10.37,2013-07-15 19:15:00,
2013-07-15 12:20:00,56.1,50.0,29.26,NE,45,0.0,0.0,80,0.00,CLR,CLR,0.00,WeatherDisplay:10.37,2013-07-15 19:20:00,
2013-07-15 12:25:00,56.1,50.0,29.26,NE,45,0.0,1.0,80,0.00,CLR,CLR,0.00,WeatherDisplay:10.37,2013-07-15 19:25:00,
2013-07-15 12:30:00,55.8,49.7,29.27,NE,45,0.0,0.0,80,0.00,CLR,CLR,0.00,WeatherDisplay:10.37,2013-07-15 19:30:00,
2013-07-15 12:35:00,55.6,49.8,29.26,NE,45,0.0,0.0,81,0.00,CLR,CLR,0.00,WeatherDisplay:10.37,2013-07-15 19:35:00,
2013-07-15 12:40:00,55.4,49.7,29.26,NE,45,0.0,0.0,81,0.00,CLR,CLR,0.00,WeatherDisplay:10.37,2013-07-15 19:40:00,
2013-07-15 12:45:00,55.2,49.8,29.26,NE,45,0.0,0.0,82,0.00,CLR,CLR,0.00,WeatherDisplay:10.37,2013-07-15 19:45:00,
2013-07-15 12:50:00,55.0,49.6,29.26,NE,45,0.0,0.0,82,0.00,CLR,CLR,0.00,WeatherDisplay:10.37,2013-07-15 19:50:00,
2013-07-15 12:55:00,55.0,49.6,29.26,NE,45,0.0,0.0,82,0.00,CLR,CLR,0.00,WeatherDisplay:10.37,2013-07-15 19:55:00,
2013-07-15 12:59:00,72.7,58.0,29.39,East,90,3.5,0.0,60,0.00,CLR,,0.00,WeatherDisplay:10.37,2013-07-15 19:59:00,
2013-07-15 13:00:00,54.9,49.8,29.26,NE,45,0.0,0.0,83,0.00,CLR,CLR,0.00,WeatherDisplay:10.37,2013-07-15 20:00:00,
2013-07-15 13:05:00,54.7,49.6,29.26,NE,45,0.0,1.0,83,0.00,CLR,CLR,0.00,WeatherDisplay:10.37,2013-07-15 20:05:00,
2013-07-15 13:10:00,54.7,49.6,29.27,NE,45,0.0,0.0,83,0.00,CLR,CLR,0.00,WeatherDisplay:10.37,2013-07-15 20:10:00,
2013-07-15 13:15:00,54.5,49.4,29.26,NE,45,0.0,0.0,83,0.00,CLR,CLR,0.00,WeatherDisplay:10.37,2013-07-15 20:15:00,
2013-07-15 13:20:00,54.5,49.8,29.26,NE,45,0.0,0.0,84,0.00,CLR,CLR,0.00,WeatherDisplay:10.37,2013-07-15 20:20:00,
2013-07-15 13:25:00,54.3,49.6,29.26,NE,45,0.0,1.0,84,0.00,CLR,CLR,0.00,WeatherDisplay:10.37,2013-07-15 20:25:00,
2013-07-15 13:30:00,54.1,49.4,29.26,NE,45,0.0,0.0,84,0.00,CLR,CLR,0.00,WeatherDisplay:10.37,2013-07-15 20:30:00,
2013-07-15 13:35:00,54.1,49.4,29.26,NE,45,0.0,0.0,84,0.00,CLR,CLR,0.00,WeatherDisplay:10.37,2013-07-15 20:35:00,
2013-07-15 13:40:00,54.0,49.2,29.26,NE,45,0.0,0.0,84,0.00,CLR,CLR,0.00,WeatherDisplay:10.37,2013-07-15 20:40:00,
2013-07-15 13:45:00,54.0,49.2,29.25,NE,45,0.0,0.0,84,0.00,CLR,CLR,0.00,WeatherDisplay:10.37,2013-07-15 20:45:00,
2013-07-15 13:50:00,53.8,49.4,29.25,NE,45,0.0,0.0,85,0.00,CLR,CLR,0.00,WeatherDisplay:10.37,2013-07-15 20:50:00,
2013-07-15 13:55:00,53.8,49.4,29.25,East,90,0.0,1.0,85,0.00,CLR,CLR,0.00,WeatherDisplay:10.37,2013-07-15 20:55:00,
2013-07-15 14:00:00,53.8,49.7,29.25,SE,135,0.0,0.0,86,0.00,CLR,CLR,0.00,WeatherDisplay:10.37,2013-07-15 21:00:00,
2013-07-15 14:05:00,53.8,49.7,29.26,SE,135,0.0,0.0,86,0.00,CLR,CLR,0.00,WeatherDisplay:10.37,2013-07-15 21:05:00,
2013-07-15 14:10:00,53.6,49.5,29.25,SE,135,0.0,1.0,86,0.00,CLR,CLR,0.00,WeatherDisplay:10.37,2013-07-15 21:10:00,
2013-07-15 14:15:00,53.6,49.5,29.26,SE,135,0.0,0.0,86,0.00,CLR,CLR,0.00,WeatherDisplay:10.37,2013-07-15 21:15:00,
2013-07-15 14:20:00,53.6,49.5,29.25,SE,135,0.0,0.0,86,0.00,CLR,CLR,0.00,WeatherDisplay:10.37,2013-07-15 21:20:00,
2013-07-15 14:25:00,53.4,49.3,29.25,SE,135,0.0,0.0,86,0.00,CLR,CLR,0.00,WeatherDisplay:10.37,2013-07-15 21:25:00,
2013-07-15 14:30:00,53.4,49.3,29.25,SE,135,0.0,1.0,86,0.00,CLR,CLR,0.00,WeatherDisplay:10.37,2013-07-15 21:30:00,
2013-07-15 14:35:00,53.2,49.2,29.25,SE,135,0.0,0.0,86,0.00,CLR,CLR,0.00,WeatherDisplay:10.37,2013-07-15 21:35:00,
2013-07-15 14:40:00,53.2,49.5,29.25,ESE,113,0.0,0.0,87,0.00,CLR,CLR,0.00,WeatherDisplay:10.37,2013-07-15 21:40:00,
2013-07-15 14:45:00,53.2,49.5,29.25,East,90,0.0,0.0,87,0.00,CLR,CLR,0.00,WeatherDisplay:10.37,2013-07-15 21:45:00,
2013-07-15 14:50:00,53.2,49.5,29.25,ESE,113,0.0,0.0,87,0.00,CLR,CLR,0.00,WeatherDisplay:10.37,2013-07-15 21:50:00,
2013-07-15 14:55:00,53.1,49.3,29.25,SE,135,0.0,0.0,87,0.00,CLR,CLR,0.00,WeatherDisplay:10.37,2013-07-15 21:55:00,
2013-07-15 15:00:00,53.1,49.3,29.25,SE,135,0.0,0.0,87,0.00,CLR,CLR,0.00,WeatherDisplay:10.37,2013-07-15 22:00:00,
2013-07-15 15:05:00,52.9,49.1,29.25,SE,135,0.0,0.0,87,0.00,CLR,CLR,0.00,WeatherDisplay:10.37,2013-07-15 22:05:00,
2013-07-15 15:10:00,52.7,48.9,29.25,SE,135,0.0,1.0,87,0.00,CLR,CLR,0.00,WeatherDisplay:10.37,2013-07-15 22:10:00,
2013-07-15 15:15:00,52.5,48.8,29.25,SE,135,0.0,0.0,87,0.00,CLR,CLR,0.00,WeatherDisplay:10.37,2013-07-15 22:15:00,
2013-07-15 15:20:00,52.5,49.1,29.25,SE,135,0.0,0.0,88,0.00,CLR,CLR,0.00,WeatherDisplay:10.37,2013-07-15 22:20:00,
2013-07-15 15:24:00,72.7,58.0,29.39,East,90,3.5,0.0,60,0.00,CLR,,0.00,WeatherDisplay:10.37,2013-07-15 22:24:00,
2013-07-15 15:25:00,52.3,48.9,29.25,SE,135,0.0,0.0,88,0.00,CLR,CLR,0.00,WeatherDisplay:10.37,2013-07-15 22:25:00,
2013-07-15 15:30:00,52.3,48.9,29.25,SE,135,0.0,0.0,88,0.00,CLR,CLR,0.00,WeatherDisplay:10.37,2013-07-15 22:30:00,
2013-07-15 15:35:00,52.2,49.0,29.25,SE,135,0.0,0.0,89,0.00,CLR,CLR,0.00,WeatherDisplay:10.37,2013-07-15 22:35:00,
2013-07-15 15:40:00,52.2,49.0,29.25,SE,135,0.0,1.0,89,0.00,CLR,CLR,0.00,WeatherDisplay:10.37,2013-07-15 22:40:00,
2013-07-15 15:45:00,52.2,49.0,29.25,SE,135,0.0,0.0,89,0.00,CLR,CLR,0.00,WeatherDisplay:10.37,2013-07-15 22:45:00,
2013-07-15 15:50:00,52.3,49.2,29.25,SE,135,0.0,0.0,89,0.00,CLR,CLR,0.00,WeatherDisplay:10.37,2013-07-15 22:50:00,
2013-07-15 15:55:00,52.3,49.2,29.25,SE,135,0.0,0.0,89,0.00,CLR,CLR,0.00,WeatherDisplay:10.37,2013-07-15 22:55:00,
2013-07-15 16:00:00,52.5,49.4,29.25,SE,135,0.0,0.0,89,0.00,CLR,CLR,0.00,WeatherDisplay:10.37,2013-07-15 23:00:00,
2013-07-15 16:05:00,52.5,49.4,29.25,SE,135,0.0,1.0,89,0.00,CLR,CLR,0.00,WeatherDisplay:10.37,2013-07-15 23:05:00,
2013-07-15 16:10:00,52.7,49.5,29.25,ESE,113,0.0,2.0,89,0.00,CLR,CLR,0.00,WeatherDisplay:10.37,2013-07-15 23:10:00,
2013-07-15 16:15:00,52.9,49.7,29.25,East,90,0.0,1.0,89,0.00,CLR,CLR,0.00,WeatherDisplay:10.37,2013-07-15 23:15:00,
2013-07-15 16:20:00,52.9,49.7,29.25,East,90,0.0,0.0,89,0.00,CLR,CLR,0.00,WeatherDisplay:10.37,2013-07-15 23:20:00,
2013-07-15 16:25:00,52.9,49.7,29.25,East,90,0.0,0.0,89,0.00,CLR,CLR,0.00,WeatherDisplay:10.37,2013-07-15 23:25:00,
2013-07-15 16:30:00,53.1,49.9,29.25,ESE,113,0.0,1.0,89,0.00,CLR,CLR,0.00,WeatherDisplay:10.37,2013-07-15 23:30:00,
2013-07-15 16:35:00,53.1,49.9,29.25,SE,135,0.0,0.0,89,0.00,CLR,CLR,0.00,WeatherDisplay:10.37,2013-07-15 23:35:00,
2013-07-15 16:40:00,53.1,49.9,29.25,SE,135,0.0,0.0,89,0.00,CLR,CLR,0.00,WeatherDisplay:10.37,2013-07-15 23:40:00,
2013-07-15 16:45:00,53.2,50.1,29.25,ESE,113,0.0,0.0,89,0.00,CLR,CLR,0.00,WeatherDisplay:10.37,2013-07-15 23:45:00,
2013-07-15 16:50:00,53.6,50.4,29.25,East,90,0.0,0.0,89,0.00,CLR,CLR,0.00,WeatherDisplay:10.37,2013-07-15 23:50:00,
2013-07-15 16:55:00,54.0,50.8,29.25,East,90,0.0,0.0,89,0.00,CLR,CLR,0.00,WeatherDisplay:10.37,2013-07-15 23:55:00,
2013-07-15 17:00:00,54.3,51.1,29.25,East,90,0.0,0.0,89,0.00,CLR,CLR,0.00,WeatherDisplay:10.37,2013-07-16 00:00:00,
2013-07-15 17:05:00,54.9,51.7,29.25,East,90,0.0,0.0,89,0.00,CLR,CLR,0.00,WeatherDisplay:10.37,2013-07-16 00:05:00,
2013-07-15 17:10:00,55.0,51.5,29.25,East,90,0.0,1.0,88,0.00,CLR,CLR,0.00,WeatherDisplay:10.37,2013-07-16 00:10:00,
2013-07-15 17:15:00,55.6,52.1,29.25,SSE,158,0.0,1.0,88,0.00,CLR,CLR,0.00,WeatherDisplay:10.37,2013-07-16 00:15:00,
2013-07-15 17:20:00,56.1,52.3,29.25,SW,225,0.0,1.0,87,0.00,CLR,CLR,0.00,WeatherDisplay:10.37,2013-07-16 00:20:00,
2013-07-15 17:25:00,56.5,52.3,29.25,SW,225,0.0,0.0,86,0.00,CLR,CLR,0.00,WeatherDisplay:10.37,2013-07-16 00:25:00,
2013-07-15 17:30:00,56.7,52.5,29.25,SW,225,0.0,0.0,86,0.00,CLR,CLR,0.00,WeatherDisplay:10.37,2013-07-16 00:30:00,
2013-07-15 17:35:00,56.7,52.2,29.24,SW,225,0.0,1.0,85,0.00,CLR,CLR,0.00,WeatherDisplay:10.37,2013-07-16 00:35:00,
2013-07-15 17:40:00,57.2,52.4,29.24,SW,225,1.0,2.0,84,0.00,CLR,CLR,0.00,WeatherDisplay:10.37,2013-07-16 00:40:00,
2013-07-15 17:45:00,57.6,52.4,29.24,SW,225,0.0,2.0,83,0.00,CLR,CLR,0.00,WeatherDisplay:10.37,2013-07-16 00:45:00,
2013-07-15 17:50:00,57.9,52.8,29.24,WSW,247,0.0,1.0,83,0.00,CLR,CLR,0.00,WeatherDisplay:10.37,2013-07-16 00:50:00,
2013-07-15 17:55:00,58.3,52.8,29.24,West,270,0.0,0.0,82,0.00,CLR,CLR,0.00,WeatherDisplay:10.37,2013-07-16 00:55:00,
2013-07-15 18:00:00,58.8,53.3,29.24,West,270,0.0,0.0,82,0.00,CLR,CLR,0.00,WeatherDisplay:10.37,2013-07-16 01:00:00,
2013-07-15 18:05:00,59.0,53.2,29.25,West,270,0.0,1.0,81,0.00,CLR,CLR,0.00,WeatherDisplay:10.37,2013-07-16 01:05:00,
2013-07-15 18:10:00,59.5,53.7,29.24,West,270,0.0,0.0,81,0.00,CLR,CLR,0.00,WeatherDisplay:10.37,2013-07-16 01:10:00,
2013-07-15 18:15:00,60.8,54.6,29.24,West,270,0.0,0.0,80,0.00,CLR,CLR,0.00,WeatherDisplay:10.37,2013-07-16 01:15:00,
2013-07-15 18:20:00,61.7,55.1,29.24,West,270,0.0,0.0,79,0.00,CLR,CLR,0.00,WeatherDisplay:10.37,2013-07-16 01:20:00,
2013-07-15 18:25:00,62.8,55.8,29.24,West,270,0.0,0.0,78,0.00,CLR,CLR,0.00,WeatherDisplay:10.37,2013-07-16 01:25:00,
2013-07-15 18:30:00,64.6,55.3,29.24,West,270,0.0,1.0,72,0.00,CLR,CLR,0.00,WeatherDisplay:10.37,2013-07-16 01:30:00,
2013-07-15 18:35:00,67.3,56.4,29.24,WSW,247,0.0,1.0,68,0.00,CLR,CLR,0.00,WeatherDisplay:10.37,2013-07-16 01:35:00,
2013-07-15 18:40:00,69.1,56.0,29.24,WSW,247,0.0,1.0,63,0.00,CLR,CLR,0.00,WeatherDisplay:10.37,2013-07-16 01:40:00,
2013-07-15 18:45:00,70.7,56.6,29.24,West,270,0.0,2.0,61,0.00,CLR,CLR,0.00,WeatherDisplay:10.37,2013-07-16 01:45:00,
2013-07-15 18:50:00,72.7,56.6,29.24,West,270,1.0,2.0,57,0.00,CLR,CLR,0.00,WeatherDisplay:10.37,2013-07-16 01:50:00,
2013-07-15 18:55:00,73.9,57.3,29.24,West,270,0.0,1.0,56,0.00,CLR,CLR,0.00,WeatherDisplay:10.37,2013-07-16 01:55:00,
2013-07-15 19:00:00,73.9,55.7,29.24,WSW,247,0.0,1.0,53,0.00,CLR,CLR,0.00,WeatherDisplay:10.37,2013-07-16 02:00:00,
2013-07-15 19:05:00,74.1,55.4,29.24,WSW,241,1.0,2.0,52,0.00,CLR,CLR,0.00,WeatherDisplay:10.37,2013-07-16 02:05:00,
2013-07-15 19:10:00,74.5,55.7,29.24,West,270,1.0,2.0,52,0.00,CLR,CLR,0.00,WeatherDisplay:10.37,2013-07-16 02:10:00,
2013-07-15 19:15:00,76.1,57.7,29.23,West,270,0.0,1.0,53,0.00,CLR,CLR,0.00,WeatherDisplay:10.37,2013-07-16 02:15:00,
2013-07-15 19:20:00,76.8,56.8,29.23,West,270,0.0,2.0,50,0.00,CLR,CLR,0.00,WeatherDisplay:10.37,2013-07-16 02:20:00,
2013-07-15 19:25:00,77.0,55.8,29.23,West,270,1.0,3.0,48,0.00,CLR,CLR,0.00,WeatherDisplay:10.37,2013-07-16 02:25:00,
2013-07-15 19:30:00,76.5,56.4,29.22,West,270,1.0,2.0,50,0.00,CLR,CLR,0.00,WeatherDisplay:10.37,2013-07-16 02:30:00,
2013-07-15 19:35:00,77.2,58.2,29.23,West,270,0.0,1.0,52,0.00,CLR,CLR,0.00,WeatherDisplay:10.37,2013-07-16 02:35:00,
2013-07-15 19:40:00,78.1,57.4,29.22,West,270,0.0,2.0,49,0.00,CLR,CLR,0.00,WeatherDisplay:10.37,2013-07-16 02:40:00,
2013-07-15 19:45:00,78.3,56.4,29.22,West,270,1.0,2.0,47,0.00,CLR,CLR,0.00,WeatherDisplay:10.37,2013-07-16 02:45:00,
2013-07-15 19:50:00,78.3,55.8,29.22,West,270,1.0,2.0,46,0.00,CLR,CLR,0.00,WeatherDisplay:10.37,2013-07-16 02:50:00,
2013-07-15 19:55:00,78.3,55.8,29.22,West,270,1.0,2.0,46,0.00,CLR,CLR,0.00,WeatherDisplay:10.37,2013-07-16 02:55:00,
2013-07-15 20:00:00,78.8,56.3,29.22,West,270,0.0,2.0,46,0.00,CLR,CLR,0.00,WeatherDisplay:10.37,2013-07-16 03:00:00,
2013-07-15 20:05:00,79.3,56.8,29.22,West,270,1.0,2.0,46,0.00,CLR,CLR,0.00,WeatherDisplay:10.37,2013-07-16 03:05:00,
2013-07-15 20:10:00,79.7,56.5,29.22,WSW,238,1.0,4.0,45,0.00,CLR,CLR,0.00,WeatherDisplay:10.37,2013-07-16 03:10:00,
2013-07-15 20:15:00,79.7,55.9,29.22,WSW,252,2.0,4.0,44,0.00,CLR,CLR,0.00,WeatherDisplay:10.37,2013-07-16 03:15:00,
2013-07-15 20:20:00,79.5,56.3,29.22,West,270,1.0,2.0,45,0.00,CLR,CLR,0.00,WeatherDisplay:10.37,2013-07-16 03:20:00,
2013-07-15 20:25:00,79.9,55.4,29.22,West,270,2.0,4.0,43,0.00,CLR,CLR,0.00,WeatherDisplay:10.37,2013-07-16 03:25:00,
2013-07-15 20:30:00,80.1,55.5,29.22,WNW,288,1.0,4.0,43,0.00,CLR,CLR,0.00,WeatherDisplay:10.37,2013-07-16 03:30:00,
2013-07-15 20:35:00,80.4,55.2,29.22,WNW,292,1.0,3.0,42,0.00,CLR,CLR,0.00,WeatherDisplay:10.37,2013-07-16 03:35:00,
2013-07-15 20:40:00,80.1,55.5,29.22,WSW,240,3.0,4.0,43,0.00,CLR,CLR,0.00,WeatherDisplay:10.37,2013-07-16 03:40:00,
2013-07-15 20:45:00,80.2,56.3,29.22,SW,232,1.0,2.0,44,0.00,CLR,CLR,0.00,WeatherDisplay:10.37,2013-07-16 03:45:00,
2013-07-15 20:50:00,81.3,57.3,29.22,WSW,247,1.0,2.0,44,0.00,CLR,CLR,0.00,WeatherDisplay:10.37,2013-07-16 03:50:00,
2013-07-15 20:55:00,81.9,57.8,29.22,WSW,254,0.0,2.0,44,0.00,CLR,CLR,0.00,WeatherDisplay:10.37,2013-07-16 03:55:00,
2013-07-15 21:00:00,82.4,57.7,29.22,West,270,1.0,3.0,43,0.00,CLR,CLR,0.00,WeatherDisplay:10.37,2013-07-16 04:00:00,
2013-07-15 21:05:00,81.9,57.8,29.22,West,270,3.0,4.0,44,0.00,CLR,CLR,0.00,WeatherDisplay:10.37,2013-07-16 04:05:00,
2013-07-15 21:10:00,81.5,58.7,29.22,West,270,1.0,4.0,46,0.00,CLR,CLR,0.00,WeatherDisplay:10.37,2013-07-16 04:10:00,
2013-07-15 21:15:00,81.5,58.7,29.22,West,270,1.0,4.0,46,0.00,CLR,CLR,0.00,WeatherDisplay:10.37,2013-07-16 04:15:00,
2013-07-15 21:20:00,81.9,59.1,29.22,West,270,1.0,4.0,46,0.00,CLR,CLR,0.00,WeatherDisplay:10.37,2013-07-16 04:20:00,
2013-07-15 21:25:00,82.4,60.1,29.22,West,270,1.0,2.0,47,0.00,CLR,CLR,0.00,WeatherDisplay:10.37,2013-07-16 04:25:00,
2013-07-15 21:30:00,82.9,59.4,29.22,West,270,3.0,6.0,45,0.00,CLR,CLR,0.00,WeatherDisplay:10.37,2013-07-16 04:30:00,
2013-07-15 21:35:00,82.8,59.3,29.22,West,270,3.0,5.0,45,0.00,CLR,CLR,0.00,WeatherDisplay:10.37,2013-07-16 04:35:00,
2013-07-15 21:40:00,81.9,59.1,29.21,West,270,1.0,4.0,46,0.00,CLR,CLR,0.00,WeatherDisplay:10.37,2013-07-16 04:40:00,
2013-07-15 21:45:00,83.1,60.2,29.22,WNW,297,2.0,4.0,46,0.00,CLR,CLR,0.00,WeatherDisplay:10.37,2013-07-16 04:45:00,
2013-07-15 21:50:00,83.3,59.7,29.21,NW,315,2.0,4.0,45,0.00,CLR,CLR,0.00,WeatherDisplay:10.37,2013-07-16 04:50:00,
2013-07-15 21:55:00,83.8,59.6,29.22,WNW,297,1.0,3.0,44,0.00,CLR,CLR,0.00,WeatherDisplay:10.37,2013-07-16 04:55:00,
2013-07-15 22:00:00,84.2,58.6,29.22,WSW,240,3.0,5.0,42,0.00,CLR,CLR,0.00,WeatherDisplay:10.37,2013-07-16 05:00:00,
2013-07-15 22:05:00,84.2,59.9,29.22,SW,232,1.0,2.0,44,0.00,CLR,CLR,0.00,WeatherDisplay:10.37,2013-07-16 05:05:00,
2013-07-15 22:10:00,84.6,60.2,29.22,West,270,1.0,2.0,44,0.00,CLR,CLR,0.00,WeatherDisplay:10.37,2013-07-16 05:10:00,
2013-07-15 22:15:00,85.1,60.1,29.22,West,270,1.0,3.0,43,0.00,CLR,CLR,0.00,WeatherDisplay:10.37,2013-07-16 05:15:00,
2013-07-15 22:20:00,85.5,58.4,29.22,West,270,3.0,6.0,40,0.00,CLR,CLR,0.00,WeatherDisplay:10.37,2013-07-16 05:20:00,
2013-07-15 22:25:00,86.2,60.4,29.22,West,270,1.0,3.0,42,0.00,CLR,CLR,0.00,WeatherDisplay:10.37,2013-07-16 05:25:00,
2013-07-15 22:30:00,86.5,61.4,29.22,West,270,0.0,2.0,43,0.00,CLR,CLR,0.00,WeatherDisplay:10.37,2013-07-16 05:30:00,
2013-07-15 22:35:00,86.5,61.4,29.21,West,270,0.0,2.0,43,0.00,CLR,CLR,0.00,WeatherDisplay:10.37,2013-07-16 05:35:00,
2013-07-15 22:40:00,86.4,58.5,29.21,West,270,2.0,4.0,39,0.00,CLR,CLR,0.00,WeatherDisplay:10.37,2013-07-16 05:40:00,
2013-07-15 22:45:00,86.4,59.2,29.20,West,270,1.0,3.0,40,0.00,CLR,CLR,0.00,WeatherDisplay:10.37,2013-07-16 05:45:00,
2013-07-15 22:50:00,86.4,59.9,29.21,West,270,1.0,3.0,41,0.00,CLR,CLR,0.00,WeatherDisplay:10.37,2013-07-16 05:50:00,
2013-07-15 22:55:00,86.4,59.9,29.21,West,270,1.0,2.0,41,0.00,CLR,CLR,0.00,WeatherDisplay:10.37,2013-07-16 05:55:00,
2013-07-15 23:00:00,86.5,59.3,29.21,West,270,2.0,4.0,40,0.00,CLR,CLR,0.00,WeatherDisplay:10.37,2013-07-16 06:00:00,
2013-07-15 23:05:00,86.7,59.5,29.21,West,270,2.0,4.0,40,0.00,CLR,CLR,0.00,WeatherDisplay:10.37,2013-07-16 06:05:00,
2013-07-15 23:10:00,86.9,59.0,29.21,West,270,2.0,4.0,39,0.00,CLR,CLR,0.00,WeatherDisplay:10.37,2013-07-16 06:10:00,
2013-07-15 23:15:00,86.9,59.0,29.21,West,270,3.0,5.0,39,0.00,CLR,CLR,0.00,WeatherDisplay:10.37,2013-07-16 06:15:00,
2013-07-15 23:20:00,87.3,59.3,29.21,West,270,2.0,4.0,39,0.00,CLR,CLR,0.00,WeatherDisplay:10.37,2013-07-16 06:20:00,
2013-07-15 23:25:00,88.0,59.2,29.21,West,270,3.0,4.0,38,0.00,CLR,CLR,0.00,WeatherDisplay:10.37,2013-07-16 06:25:00,
2013-07-15 23:30:00,88.0,58.4,29.20,West,270,3.0,4.0,37,0.00,CLR,CLR,0.00,WeatherDisplay:10.37,2013-07-16 06:30:00,
2013-07-15 23:35:00,88.7,59.1,29.20,West,270,2.0,3.0,37,0.00,CLR,CLR,0.00,WeatherDisplay:10.37,2013-07-16 06:35:00,
2013-07-15 23:40:00,88.5,57.4,29.21,WSW,247,2.0,4.0,35,0.00,CLR,CLR,0.00,WeatherDisplay:10.37,2013-07-16 06:40:00,
2013-07-15 23:45:00,86.9,56.7,29.21,WSW,247,2.0,6.0,36,0.00,CLR,CLR,0.00,WeatherDisplay:10.37,2013-07-16 06:45:00,
2013-07-15 23:50:00,85.5,57.0,29.20,West,270,1.0,5.0,38,0.00,CLR,CLR,0.00,WeatherDisplay:10.37,2013-07-16 06:50:00,
2013-07-15 23:55:00,86.0,58.2,29.21,West,270,1.0,2.0,39,0.00,CLR,CLR,0.00,WeatherDisplay:10.37,2013-07-16 06:55:00,